Time;durP1;ratioP1;P1;durP2;ratioP2;P2;SDS_P1;SDS_P2;PMS_P1;PMS_P2;Temp;Humidity;BMP_temperature;BMP_pressure;BME280_temperature;BME280_humidity;BME280_pressure;Samples;Min_cycle;Max_cycle;Signal;HPM_P1;HPM_P2
2022/06/28 00:01:25;;;;;;;6.20;3.72;;;;;;;;;;4920421;29;20048;-81
2022/06/28 00:04:12;;;;;;;4.25;3.58;;;;;;;;;;4920156;29;20044;-79
2022/06/28 00:06:58;;;;;;;5.40;3.63;;;;;;;;;;4919809;29;20060;-80
2022/06/28 00:09:43;;;;;;;7.97;3.75;;;;;;;;;;4926476;29;20052;-80
2022/06/28 00:12:29;;;;;;;8.57;3.42;;;;;;;;;;4919931;29;20048;-81
2022/06/28 00:18:19;;;;;;;7.32;3.75;;;;;;;;;;4920177;29;20040;-81
2022/06/28 00:21:08;;;;;;;7.28;3.40;;;;;;;;;;4920832;29;20495;-82
2022/06/28 00:23:53;;;;;;;14.68;4.07;;;;;;;;;;4920656;29;20398;-81
2022/06/28 00:26:42;;;;;;;7.22;4.50;;;;;;;;;;4920591;29;20044;-80
2022/06/28 00:29:28;;;;;;;5.18;3.67;;;;;;;;;;4920917;29;20052;-82
2022/06/28 00:32:18;;;;;;;9.02;3.90;;;;;;;;;;4920446;29;20521;-82
2022/06/28 00:35:04;;;;;;;8.30;4.10;;;;;;;;;;4912633;29;20390;-82
2022/06/28 00:37:50;;;;;;;6.85;3.63;;;;;;;;;;4938154;29;20060;-82
2022/06/28 00:40:54;;;;;;;5.68;3.50;;;;;;;;;;4938800;29;20044;-81
2022/06/28 00:43:41;;;;;;;10.05;4.07;;;;;;;;;;4925869;29;20040;-82
2022/06/28 00:46:27;;;;;;;5.65;4.07;;;;;;;;;;4911559;29;20052;-81
2022/06/28 00:49:13;;;;;;;9.63;3.80;;;;;;;;;;4919958;29;20047;-80
2022/06/28 00:52:02;;;;;;;6.75;3.67;;;;;;;;;;4919266;29;20048;-79
2022/06/28 00:54:48;;;;;;;10.40;3.80;;;;;;;;;;4911596;29;20048;-80
2022/06/28 00:57:33;;;;;;;5.93;3.30;;;;;;;;;;4911730;29;20048;-81
2022/06/28 01:00:19;;;;;;;6.93;3.88;;;;;;;;;;4938207;29;20055;-79
2022/06/28 01:03:07;;;;;;;8.88;3.47;;;;;;;;;;4919472;29;20044;-79
2022/06/28 01:05:53;;;;;;;5.05;3.67;;;;;;;;;;4911761;29;20475;-81
2022/06/28 01:08:46;;;;;;;6.07;3.90;;;;;;;;;;4911621;29;20390;-81
2022/06/28 01:11:33;;;;;;;12.25;4.22;;;;;;;;;;4919069;29;20048;-79
2022/06/28 01:14:24;;;;;;;8.02;3.90;;;;;;;;;;4907895;29;20048;-81
2022/06/28 01:17:32;;;;;;;7.82;4.20;;;;;;;;;;4918049;29;20056;-81
2022/06/28 01:20:41;;;;;;;10.45;4.45;;;;;;;;;;4924806;29;20052;-82
2022/06/28 01:23:32;;;;;;;7.03;4.03;;;;;;;;;;4911203;29;20044;-81
2022/06/28 01:26:31;;;;;;;9.70;3.97;;;;;;;;;;4937431;29;20048;-80
2022/06/28 01:29:16;;;;;;;11.13;5.75;;;;;;;;;;4910658;29;20048;-81
2022/06/28 01:32:14;;;;;;;46.25;23.38;;;;;;;;;;4910708;29;20032;-81
2022/06/28 01:35:02;;;;;;;69.10;33.05;;;;;;;;;;4910693;29;20048;-80
2022/06/28 01:37:49;;;;;;;11.57;5.22;;;;;;;;;;4910673;29;20075;-80
2022/06/28 01:40:37;;;;;;;9.25;5.70;;;;;;;;;;4936981;29;20060;-83
2022/06/28 01:43:22;;;;;;;10.98;6.32;;;;;;;;;;4910293;29;20048;-82
2022/06/28 01:46:09;;;;;;;9.65;5.05;;;;;;;;;;4910718;29;20040;-80
2022/06/28 01:49:12;;;;;;;7.90;5.20;;;;;;;;;;4918285;29;20490;-81
2022/06/28 01:51:58;;;;;;;8.35;5.10;;;;;;;;;;4910274;29;20048;-80
2022/06/28 01:54:44;;;;;;;10.40;4.13;;;;;;;;;;4910390;29;20047;-80
2022/06/28 01:57:29;;;;;;;6.85;3.88;;;;;;;;;;4910500;29;20044;-81
2022/06/28 02:00:18;;;;;;;5.72;4.32;;;;;;;;;;4910118;29;20052;-81
2022/06/28 02:03:08;;;;;;;10.48;4.05;;;;;;;;;;4910115;29;20044;-82
2022/06/28 02:06:09;;;;;;;7.53;4.03;;;;;;;;;;4918158;29;20040;-80
2022/06/28 02:08:58;;;;;;;5.80;4.40;;;;;;;;;;4909930;29;20052;-79
2022/06/28 02:11:52;;;;;;;8.60;4.22;;;;;;;;;;4909919;29;20490;-82
2022/06/28 02:14:42;;;;;;;6.05;4.32;;;;;;;;;;4906237;29;20048;-80
2022/06/28 02:17:28;;;;;;;5.53;3.78;;;;;;;;;;4910040;29;20402;-81
2022/06/28 02:20:14;;;;;;;10.25;5.00;;;;;;;;;;4910052;29;20044;-80
2022/06/28 02:23:01;;;;;;;9.65;4.03;;;;;;;;;;4923076;29;20044;-81
2022/06/28 02:25:48;;;;;;;6.03;4.28;;;;;;;;;;4909983;29;20044;-82
2022/06/28 02:28:33;;;;;;;7.97;4.05;;;;;;;;;;4923050;29;20044;-81
2022/06/28 02:31:19;;;;;;;6.25;3.75;;;;;;;;;;4909652;29;20040;-82
2022/06/28 02:34:05;;;;;;;6.63;3.95;;;;;;;;;;4936315;29;20402;-81
2022/06/28 02:43:00;;;;;;;8.40;4.20;;;;;;;;;;4917790;29;20056;-82
2022/06/28 02:45:46;;;;;;;6.28;4.32;;;;;;;;;;4917438;29;20052;-81
2022/06/28 02:48:31;;;;;;;6.25;4.45;;;;;;;;;;4917664;29;20048;-82
2022/06/28 02:51:18;;;;;;;8.88;4.45;;;;;;;;;;4922445;29;20044;-82
2022/06/28 02:54:03;;;;;;;7.70;4.38;;;;;;;;;;4917484;29;20048;-81
2022/06/28 02:56:49;;;;;;;6.18;4.35;;;;;;;;;;4909505;29;20048;-81
2022/06/28 02:59:34;;;;;;;5.88;4.18;;;;;;;;;;4917346;29;20041;-82
2022/06/28 03:02:20;;;;;;;10.93;4.40;;;;;;;;;;4926580;29;20418;-81
2022/06/28 03:05:08;;;;;;;9.18;4.40;;;;;;;;;;4940046;29;20486;-78
2022/06/28 03:07:54;;;;;;;5.75;4.40;;;;;;;;;;4921223;29;20052;-78
2022/06/28 03:10:42;;;;;;;5.88;4.10;;;;;;;;;;4913139;29;20040;-78
2022/06/28 03:13:28;;;;;;;5.55;4.05;;;;;;;;;;4920799;29;20481;-78
2022/06/28 03:16:13;;;;;;;9.45;4.25;;;;;;;;;;4913046;29;20052;-78
2022/06/28 03:18:59;;;;;;;6.35;4.50;;;;;;;;;;4920851;29;20048;-78
2022/06/28 03:21:44;;;;;;;8.73;5.00;;;;;;;;;;4913035;29;20044;-78
2022/06/28 03:24:30;;;;;;;8.68;4.75;;;;;;;;;;4926602;29;20052;-77
2022/06/28 03:27:15;;;;;;;10.25;4.25;;;;;;;;;;4939541;29;20060;-77
2022/06/28 03:30:03;;;;;;;7.00;4.50;;;;;;;;;;4920895;29;20505;-77
2022/06/28 03:32:48;;;;;;;6.22;4.05;;;;;;;;;;4921364;29;20040;-79
2022/06/28 03:35:41;;;;;;;7.50;4.40;;;;;;;;;;4912817;29;20037;-76
2022/06/28 03:38:27;;;;;;;7.68;4.20;;;;;;;;;;4920939;29;20052;-77
2022/06/28 03:41:24;;;;;;;8.52;4.20;;;;;;;;;;4912281;29;20047;-77
2022/06/28 03:44:17;;;;;;;12.13;4.18;;;;;;;;;;4912649;29;20063;-76
2022/06/28 03:47:03;;;;;;;7.20;3.72;;;;;;;;;;4912492;29;20048;-77
2022/06/28 03:50:08;;;;;;;8.20;4.07;;;;;;;;;;4926751;29;20040;-76
2022/06/28 03:53:11;;;;;;;7.28;4.05;;;;;;;;;;4938875;29;20048;-77
2022/06/28 03:56:16;;;;;;;6.18;4.20;;;;;;;;;;4919660;29;20048;-77
2022/06/28 03:59:01;;;;;;;5.53;3.97;;;;;;;;;;4920101;29;20043;-77
2022/06/28 04:01:47;;;;;;;9.52;4.30;;;;;;;;;;4912048;29;20052;-77
2022/06/28 04:04:32;;;;;;;9.05;4.22;;;;;;;;;;4920131;29;20048;-77
2022/06/28 04:07:17;;;;;;;8.20;4.18;;;;;;;;;;4912108;29;20048;-77
2022/06/28 04:10:04;;;;;;;7.75;4.40;;;;;;;;;;4911984;29;20048;-77
2022/06/28 04:12:50;;;;;;;10.10;4.35;;;;;;;;;;4937157;29;20052;-77
2022/06/28 04:15:40;;;;;;;10.05;3.83;;;;;;;;;;4911946;29;20044;-77
2022/06/28 04:18:29;;;;;;;9.07;4.40;;;;;;;;;;4906181;29;20052;-77
2022/06/28 04:21:20;;;;;;;8.65;4.07;;;;;;;;;;4919276;29;20052;-76
2022/06/28 04:24:13;;;;;;;11.40;4.75;;;;;;;;;;4911516;29;20052;-76
2022/06/28 04:27:23;;;;;;;6.20;4.43;;;;;;;;;;4911457;29;20056;-76
2022/06/28 04:30:10;;;;;;;9.00;4.78;;;;;;;;;;4911474;29;20052;-78
2022/06/28 04:33:07;;;;;;;6.50;4.63;;;;;;;;;;4911870;29;20044;-78
2022/06/28 04:35:54;;;;;;;7.38;3.92;;;;;;;;;;4911818;29;20040;-77
2022/06/28 04:38:41;;;;;;;7.82;4.55;;;;;;;;;;4911877;29;20044;-76
2022/06/28 04:41:45;;;;;;;7.10;4.25;;;;;;;;;;4911447;29;20051;-78
2022/06/28 04:44:39;;;;;;;10.68;4.80;;;;;;;;;;4938149;29;20040;-78
2022/06/28 04:47:26;;;;;;;9.70;4.57;;;;;;;;;;4911446;29;20048;-77
2022/06/28 04:50:12;;;;;;;9.88;4.28;;;;;;;;;;4924468;29;20399;-78
2022/06/28 04:52:58;;;;;;;8.95;4.00;;;;;;;;;;4919391;29;20056;-78
2022/06/28 04:55:43;;;;;;;8.30;4.50;;;;;;;;;;4910960;29;20052;-77
2022/06/28 04:58:29;;;;;;;8.20;3.85;;;;;;;;;;4905342;29;20056;-79
2022/06/28 05:01:14;;;;;;;12.88;4.80;;;;;;;;;;4924141;29;20055;-79
2022/06/28 05:04:00;;;;;;;13.07;4.93;;;;;;;;;;4919507;29;20478;-78
2022/06/28 05:07:04;;;;;;;9.65;4.75;;;;;;;;;;4919097;29;20048;-79
2022/06/28 05:09:49;;;;;;;10.00;4.32;;;;;;;;;;4911103;29;20048;-79
2022/06/28 05:12:35;;;;;;;7.05;4.20;;;;;;;;;;4936910;29;20430;-78
2022/06/28 05:15:20;;;;;;;9.05;4.40;;;;;;;;;;4904413;29;20056;-78
2022/06/28 05:18:20;;;;;;;7.45;4.50;;;;;;;;;;4910884;29;20044;-78
2022/06/28 05:21:05;;;;;;;7.88;4.35;;;;;;;;;;4910657;29;20055;-77
2022/06/28 05:23:53;;;;;;;7.97;4.50;;;;;;;;;;4910132;29;20044;-77
2022/06/28 05:26:45;;;;;;;6.75;4.15;;;;;;;;;;4917896;29;20048;-78
2022/06/28 05:29:39;;;;;;;9.38;4.50;;;;;;;;;;4918652;29;20044;-78
2022/06/28 05:32:24;;;;;;;8.65;3.90;;;;;;;;;;4910053;29;20040;-79
2022/06/28 05:35:09;;;;;;;6.03;3.83;;;;;;;;;;4910859;29;20044;-79
2022/06/28 05:37:55;;;;;;;8.57;4.38;;;;;;;;;;4918768;29;20478;-78
2022/06/28 05:40:41;;;;;;;8.75;3.90;;;;;;;;;;4917731;29;20048;-80
2022/06/28 05:43:26;;;;;;;10.02;4.40;;;;;;;;;;4910208;29;20044;-78
2022/06/28 05:46:12;;;;;;;6.93;4.00;;;;;;;;;;4897303;29;20039;-78
2022/06/28 05:48:57;;;;;;;4.93;3.65;;;;;;;;;;4918379;29;20393;-79
2022/06/28 05:51:46;;;;;;;9.85;4.05;;;;;;;;;;4924238;29;20045;-78
2022/06/28 05:54:32;;;;;;;5.75;3.72;;;;;;;;;;4922969;29;20394;-78
2022/06/28 05:57:17;;;;;;;5.78;3.80;;;;;;;;;;4910106;29;20470;-79
2022/06/28 06:00:04;;;;;;;13.27;4.25;;;;;;;;;;4909348;29;20047;-80
2022/06/28 06:03:00;;;;;;;6.93;3.80;;;;;;;;;;4918061;29;20430;-79
2022/06/28 06:05:45;;;;;;;8.60;3.83;;;;;;;;;;4917888;29;20044;-80
2022/06/28 06:08:32;;;;;;;11.75;3.60;;;;;;;;;;4909351;29;20048;-79
2022/06/28 06:11:18;;;;;;;6.40;3.70;;;;;;;;;;4910091;29;20048;-79
2022/06/28 06:14:05;;;;;;;6.95;3.97;;;;;;;;;;4906928;29;20045;-79
2022/06/28 06:16:53;;;;;;;4.70;3.63;;;;;;;;;;4909501;29;20044;-79
2022/06/28 06:19:39;;;;;;;9.73;4.43;;;;;;;;;;4909740;29;20044;-78
2022/06/28 06:22:25;;;;;;;8.57;3.92;;;;;;;;;;4909376;29;20494;-78
2022/06/28 06:25:13;;;;;;;5.50;3.60;;;;;;;;;;4909779;29;20048;-77
2022/06/28 06:28:02;;;;;;;8.07;3.60;;;;;;;;;;4909728;29;20040;-78
2022/06/28 06:30:47;;;;;;;7.35;3.80;;;;;;;;;;4909680;29;20060;-77
2022/06/28 06:33:35;;;;;;;7.80;3.90;;;;;;;;;;4910803;29;20056;-79
2022/06/28 06:36:28;;;;;;;10.18;4.00;;;;;;;;;;4913899;29;20047;-78
2022/06/28 06:39:14;;;;;;;9.35;4.40;;;;;;;;;;4915278;29;20060;-78
2022/06/28 06:42:00;;;;;;;5.93;3.95;;;;;;;;;;4928218;29;20406;-78
2022/06/28 06:44:46;;;;;;;9.02;4.60;;;;;;;;;;4915663;29;20051;-78
2022/06/28 06:47:32;;;;;;;8.75;4.00;;;;;;;;;;4929191;29;20048;-77
2022/06/28 06:50:20;;;;;;;9.07;4.47;;;;;;;;;;4929116;29;20059;-78
2022/06/28 06:53:06;;;;;;;10.73;4.50;;;;;;;;;;4928819;29;20052;-79
2022/06/28 06:55:52;;;;;;;7.28;4.00;;;;;;;;;;4926118;29;20052;-78
2022/06/28 06:58:38;;;;;;;6.55;3.72;;;;;;;;;;4917107;29;20498;-80
2022/06/28 07:01:28;;;;;;;17.38;4.25;;;;;;;;;;4917953;29;20040;-79
2022/06/28 07:04:16;;;;;;;5.50;4.18;;;;;;;;;;4922643;29;20501;-79
2022/06/28 07:07:02;;;;;;;10.10;4.60;;;;;;;;;;4917742;29;20060;-79
2022/06/28 07:09:47;;;;;;;5.65;3.75;;;;;;;;;;4937479;29;20041;-79
2022/06/28 07:12:33;;;;;;;8.98;4.15;;;;;;;;;;4910124;29;20056;-79
2022/06/28 07:15:19;;;;;;;10.95;4.60;;;;;;;;;;4918129;29;20048;-79
2022/06/28 07:18:05;;;;;;;6.60;3.63;;;;;;;;;;4920066;29;20044;-79
2022/06/28 07:20:52;;;;;;;8.18;4.68;;;;;;;;;;4925168;29;20047;-79
2022/06/28 07:23:38;;;;;;;7.55;3.92;;;;;;;;;;4911767;29;20056;-79
2022/06/28 07:26:25;;;;;;;9.10;3.55;;;;;;;;;;4919473;29;20044;-79
2022/06/28 07:29:14;;;;;;;12.77;8.90;;;;;;;;;;4918724;29;20044;-77
2022/06/28 07:32:00;;;;;;;12.13;6.55;;;;;;;;;;4910747;29;20052;-80
2022/06/28 07:34:46;;;;;;;50.65;37.97;;;;;;;;;;4910135;29;20044;-79
2022/06/28 07:37:31;;;;;;;11.52;5.00;;;;;;;;;;4919867;29;20066;-79
2022/06/28 07:40:18;;;;;;;12.10;8.65;;;;;;;;;;4938423;29;20048;-79
2022/06/28 07:43:21;;;;;;;11.80;6.20;;;;;;;;;;4920103;29;20040;-78
2022/06/28 07:46:15;;;;;;;13.88;7.95;;;;;;;;;;4911065;29;20414;-78
2022/06/28 07:49:00;;;;;;;10.00;6.15;;;;;;;;;;4913392;29;20044;-78
2022/06/28 07:54:52;;;;;;;18.45;4.85;;;;;;;;;;4912903;29;20040;-78
2022/06/28 07:57:44;;;;;;;12.60;4.78;;;;;;;;;;4913181;29;20052;-78
2022/06/28 08:00:32;;;;;;;7.97;4.80;;;;;;;;;;4919960;29;20048;-79
2022/06/28 08:03:34;;;;;;;8.95;4.90;;;;;;;;;;4912399;29;20052;-77
2022/06/28 08:06:20;;;;;;;11.13;4.90;;;;;;;;;;4919859;29;20048;-78
2022/06/28 08:09:10;;;;;;;8.85;4.18;;;;;;;;;;4911521;29;20048;-76
2022/06/28 08:11:57;;;;;;;11.50;3.90;;;;;;;;;;4925344;29;20056;-78
2022/06/28 08:14:42;;;;;;;9.05;3.80;;;;;;;;;;4920630;29;20518;-79
2022/06/28 08:17:28;;;;;;;8.43;3.45;;;;;;;;;;4898574;29;20446;-79
2022/06/28 08:20:13;;;;;;;10.70;3.65;;;;;;;;;;4911544;29;20044;-80
2022/06/28 08:22:59;;;;;;;8.02;3.60;;;;;;;;;;4924305;29;20040;-77
2022/06/28 08:25:46;;;;;;;7.47;3.85;;;;;;;;;;4925371;29;20414;-78
2022/06/28 08:28:32;;;;;;;8.07;3.60;;;;;;;;;;4911565;29;20044;-79
2022/06/28 08:31:17;;;;;;;6.80;3.92;;;;;;;;;;4919193;29;20051;-81
2022/06/28 08:34:03;;;;;;;9.45;4.18;;;;;;;;;;4919617;29;20052;-80
2022/06/28 08:36:48;;;;;;;7.82;3.70;;;;;;;;;;4911367;29;20063;-79
2022/06/28 08:39:34;;;;;;;5.78;3.50;;;;;;;;;;4926142;29;20048;-78
2022/06/28 08:42:25;;;;;;;8.00;3.83;;;;;;;;;;4919104;29;20048;-77
2022/06/28 08:45:11;;;;;;;7.47;3.67;;;;;;;;;;4918825;29;20403;-77
2022/06/28 08:47:59;;;;;;;5.70;3.45;;;;;;;;;;4919605;29;20040;-78
2022/06/28 08:50:52;;;;;;;7.55;3.47;;;;;;;;;;4925054;29;20059;-77
2022/06/28 08:53:39;;;;;;;8.70;3.50;;;;;;;;;;4919323;29;20047;-79
2022/06/28 08:56:25;;;;;;;6.38;3.47;;;;;;;;;;4919261;29;20044;-77
2022/06/28 08:59:11;;;;;;;5.47;3.33;;;;;;;;;;4917999;29;20483;-78
2022/06/28 09:01:56;;;;;;;5.03;3.40;;;;;;;;;;4918709;29;20052;-81
2022/06/28 09:04:49;;;;;;;4.40;3.25;;;;;;;;;;4918843;29;20048;-80
2022/06/28 09:07:35;;;;;;;4.00;3.28;;;;;;;;;;4925465;29;20044;-81
2022/06/28 09:10:20;;;;;;;9.10;2.95;;;;;;;;;;4904967;29;20056;-82
2022/06/28 09:13:12;;;;;;;7.25;3.30;;;;;;;;;;4918440;29;20052;-82
2022/06/28 09:15:59;;;;;;;4.45;3.30;;;;;;;;;;4925433;29;20040;-79
2022/06/28 09:18:48;;;;;;;9.05;3.45;;;;;;;;;;4918801;29;20056;-78
2022/06/28 09:21:41;;;;;;;7.55;3.33;;;;;;;;;;4918378;29;20052;-79
2022/06/28 09:24:26;;;;;;;13.07;3.72;;;;;;;;;;4918674;29;20040;-79
2022/06/28 09:27:12;;;;;;;11.07;3.40;;;;;;;;;;4918208;29;20052;-80
2022/06/28 09:29:58;;;;;;;5.35;3.40;;;;;;;;;;4918840;29;20044;-81
2022/06/28 09:32:44;;;;;;;6.35;3.50;;;;;;;;;;4904549;29;20052;-81
2022/06/28 09:35:29;;;;;;;9.20;3.75;;;;;;;;;;4918076;29;20048;-78
2022/06/28 09:38:30;;;;;;;7.78;3.95;;;;;;;;;;4924647;29;20059;-80
2022/06/28 09:41:25;;;;;;;6.68;3.95;;;;;;;;;;4903745;29;20056;-78
2022/06/28 09:44:10;;;;;;;9.45;3.53;;;;;;;;;;4924476;29;20048;-79
2022/06/28 09:46:57;;;;;;;12.23;4.00;;;;;;;;;;4918502;29;20048;-80
2022/06/28 09:49:47;;;;;;;6.00;3.85;;;;;;;;;;4917667;29;20048;-83
2022/06/28 09:52:33;;;;;;;10.82;3.50;;;;;;;;;;4918235;29;20048;-79
2022/06/28 09:55:19;;;;;;;4.80;3.17;;;;;;;;;;4917737;29;20052;-79
2022/06/28 09:58:04;;;;;;;11.10;3.60;;;;;;;;;;4917868;29;20052;-78
2022/06/28 10:00:50;;;;;;;11.07;3.45;;;;;;;;;;4918062;29;20040;-77
2022/06/28 10:03:36;;;;;;;13.25;3.60;;;;;;;;;;4917452;29;20052;-78
2022/06/28 10:06:22;;;;;;;4.40;3.13;;;;;;;;;;4917947;29;20044;-78
2022/06/28 10:09:07;;;;;;;7.50;3.28;;;;;;;;;;4917599;29;20486;-77
2022/06/28 10:15:04;;;;;;;7.07;3.20;;;;;;;;;;4917506;29;20048;-81
2022/06/28 10:18:00;;;;;;;7.60;3.00;;;;;;;;;;4917572;29;20060;-78
2022/06/28 10:20:46;;;;;;;5.30;3.15;;;;;;;;;;4917777;29;20565;-80
2022/06/28 10:23:37;;;;;;;4.68;2.92;;;;;;;;;;4917362;29;20052;-81
2022/06/28 10:26:24;;;;;;;5.85;3.15;;;;;;;;;;4917914;29;20048;-80
2022/06/28 10:29:10;;;;;;;5.20;3.08;;;;;;;;;;4917908;29;20052;-80
2022/06/28 10:31:55;;;;;;;6.80;3.17;;;;;;;;;;4916980;29;20048;-80
2022/06/28 10:34:51;;;;;;;9.23;3.60;;;;;;;;;;4917594;29;20048;-80
2022/06/28 10:38:08;;;;;;;6.85;3.03;;;;;;;;;;4919557;29;20040;-80
2022/06/28 10:40:54;;;;;;;4.97;3.03;;;;;;;;;;4917837;29;20044;-80
2022/06/28 10:43:45;;;;;;;6.95;3.30;;;;;;;;;;4917592;29;20044;-81
2022/06/28 10:46:31;;;;;;;30.65;4.72;;;;;;;;;;4917632;29;20048;-80
2022/06/28 10:49:16;;;;;;;14.25;3.17;;;;;;;;;;4917913;29;20044;-81
2022/06/28 10:52:22;;;;;;;7.63;3.00;;;;;;;;;;4916728;29;20040;-80
2022/06/28 10:55:10;;;;;;;5.22;3.10;;;;;;;;;;4917622;29;20048;-79
2022/06/28 10:58:07;;;;;;;7.97;3.17;;;;;;;;;;4917951;29;20146;-80
2022/06/28 11:00:53;;;;;;;8.23;3.28;;;;;;;;;;4917114;29;20410;-80
2022/06/28 11:04:12;;;;;;;9.43;3.17;;;;;;;;;;4917768;29;20217;-80
2022/06/28 11:07:05;;;;;;;4.57;2.60;;;;;;;;;;4917138;29;20048;-80
2022/06/28 11:09:53;;;;;;;6.30;2.95;;;;;;;;;;4917163;29;20056;-80
2022/06/28 11:12:41;;;;;;;5.28;3.00;;;;;;;;;;4916971;29;20052;-80
2022/06/28 11:15:36;;;;;;;4.15;2.78;;;;;;;;;;4917516;29;20406;-80
2022/06/28 11:18:23;;;;;;;4.10;2.97;;;;;;;;;;4917282;29;20051;-80
2022/06/28 11:21:08;;;;;;;5.88;3.03;;;;;;;;;;4918002;29;20052;-81
2022/06/28 11:23:54;;;;;;;4.40;2.65;;;;;;;;;;4922891;29;20048;-79
2022/06/28 11:29:43;;;;;;;5.63;2.65;;;;;;;;;;4922506;29;20414;-79
2022/06/28 11:32:30;;;;;;;4.97;3.10;;;;;;;;;;4921944;29;20466;-80
2022/06/28 11:35:18;;;;;;;7.30;3.42;;;;;;;;;;4920956;29;20060;-79
2022/06/28 11:38:06;;;;;;;3.30;3.00;;;;;;;;;;4927877;29;20040;-81
2022/06/28 11:40:54;;;;;;;6.00;3.25;;;;;;;;;;4921082;29;20052;-79
2022/06/28 11:43:40;;;;;;;3.72;3.05;;;;;;;;;;4920466;29;20048;-80
2022/06/28 11:46:27;;;;;;;5.57;3.13;;;;;;;;;;4927288;29;20048;-80
2022/06/28 11:49:12;;;;;;;6.75;2.85;;;;;;;;;;4920733;29;20055;-80
2022/06/28 11:51:58;;;;;;;6.63;2.70;;;;;;;;;;4927127;29;20052;-78
2022/06/28 11:54:45;;;;;;;4.32;2.53;;;;;;;;;;4920620;29;20394;-79
2022/06/28 11:57:30;;;;;;;5.15;2.88;;;;;;;;;;4926072;29;20048;-79
2022/06/28 12:00:17;;;;;;;5.63;2.63;;;;;;;;;;4920223;29;20048;-80
2022/06/28 12:03:05;;;;;;;5.82;2.60;;;;;;;;;;4919450;29;20048;-79
2022/06/28 12:05:49;;;;;;;4.95;2.60;;;;;;;;;;4926842;29;20044;-80
2022/06/28 12:08:53;;;;;;;6.65;3.10;;;;;;;;;;4920755;29;20052;-79
2022/06/28 12:11:52;;;;;;;6.45;3.00;;;;;;;;;;4919601;29;20040;-79
2022/06/28 12:14:39;;;;;;;6.00;2.85;;;;;;;;;;4920180;29;20052;-78
2022/06/28 12:17:24;;;;;;;4.80;2.88;;;;;;;;;;4919909;29;20040;-77
2022/06/28 12:20:10;;;;;;;5.75;3.15;;;;;;;;;;4920029;29;20052;-77
2022/06/28 12:23:03;;;;;;;4.38;2.65;;;;;;;;;;4919679;29;20048;-80
2022/06/28 12:26:01;;;;;;;3.83;2.83;;;;;;;;;;4919294;29;20040;-78
2022/06/28 12:28:47;;;;;;;6.53;2.78;;;;;;;;;;4926133;29;20491;-79
2022/06/28 12:31:33;;;;;;;4.32;2.80;;;;;;;;;;4919242;29;20052;-78
2022/06/28 12:34:19;;;;;;;4.00;3.00;;;;;;;;;;4918671;29;20056;-78
2022/06/28 12:37:06;;;;;;;3.20;2.50;;;;;;;;;;4926227;29;20052;-80
2022/06/28 12:39:53;;;;;;;5.18;2.53;;;;;;;;;;4919872;29;20056;-79
2022/06/28 12:42:38;;;;;;;4.43;2.70;;;;;;;;;;4912603;29;20047;-78
2022/06/28 12:45:24;;;;;;;4.15;2.45;;;;;;;;;;4919848;29;20892;-79
2022/06/28 12:48:09;;;;;;;4.05;3.00;;;;;;;;;;4928320;29;20044;-78
2022/06/28 12:50:55;;;;;;;4.00;2.67;;;;;;;;;;4920554;29;20486;-80
2022/06/28 12:53:40;;;;;;;4.50;2.80;;;;;;;;;;4918631;29;20057;-80
2022/06/28 12:56:27;;;;;;;3.65;2.70;;;;;;;;;;4925803;29;20486;-81
2022/06/28 12:59:11;;;;;;;7.20;2.83;;;;;;;;;;4919958;29;20048;-81
2022/06/28 13:01:58;;;;;;;12.52;2.95;;;;;;;;;;4918724;29;20044;-79
2022/06/28 13:04:47;;;;;;;6.05;2.83;;;;;;;;;;4919508;29;20040;-77
2022/06/28 13:07:33;;;;;;;5.68;2.90;;;;;;;;;;4924860;29;20040;-79
2022/06/28 13:10:18;;;;;;;3.97;2.50;;;;;;;;;;4918994;29;20044;-78
2022/06/28 13:13:03;;;;;;;7.68;2.88;;;;;;;;;;4918873;29;20048;-79
2022/06/28 13:15:49;;;;;;;5.97;2.70;;;;;;;;;;4918583;29;20040;-78
2022/06/28 13:18:35;;;;;;;3.97;2.60;;;;;;;;;;4918872;29;20056;-80
2022/06/28 13:21:20;;;;;;;3.50;2.80;;;;;;;;;;4918253;29;20044;-78
2022/06/28 13:24:06;;;;;;;5.35;2.92;;;;;;;;;;4925503;29;20044;-80
2022/06/28 13:26:52;;;;;;;3.92;2.60;;;;;;;;;;4918950;29;20044;-79
2022/06/28 13:29:37;;;;;;;7.03;2.92;;;;;;;;;;4924369;29;20040;-78
2022/06/28 13:32:23;;;;;;;3.65;2.60;;;;;;;;;;4918565;29;20044;-78
2022/06/28 13:35:08;;;;;;;6.93;2.78;;;;;;;;;;4918045;29;20060;-78
2022/06/28 13:37:54;;;;;;;4.18;2.60;;;;;;;;;;4924691;29;20056;-79
2022/06/28 13:40:40;;;;;;;5.25;2.70;;;;;;;;;;4918385;29;20498;-79
2022/06/28 13:43:34;;;;;;;6.43;3.22;;;;;;;;;;4917541;29;20398;-81
2022/06/28 13:46:21;;;;;;;6.07;2.58;;;;;;;;;;4918277;29;20048;-78
2022/06/28 13:49:06;;;;;;;5.13;3.05;;;;;;;;;;4923867;29;20485;-79
2022/06/28 13:51:52;;;;;;;4.80;2.85;;;;;;;;;;4924341;29;20048;-77
2022/06/28 13:54:37;;;;;;;5.47;2.80;;;;;;;;;;4924355;29;20048;-81
2022/06/28 13:57:25;;;;;;;6.40;2.75;;;;;;;;;;4936273;29;20052;-82
2022/06/28 14:00:11;;;;;;;6.10;2.75;;;;;;;;;;4917859;29;20044;-82
2022/06/28 14:02:56;;;;;;;5.60;2.63;;;;;;;;;;4917409;29;20052;-81
2022/06/28 14:05:45;;;;;;;3.63;2.65;;;;;;;;;;4924238;29;20486;-81
2022/06/28 14:08:31;;;;;;;3.10;2.10;;;;;;;;;;4917575;29;20052;-78
2022/06/28 14:11:17;;;;;;;5.65;2.60;;;;;;;;;;4917225;29;20048;-78
2022/06/28 14:14:02;;;;;;;9.95;2.60;;;;;;;;;;4917591;29;20048;-77
2022/06/28 14:16:48;;;;;;;5.80;2.67;;;;;;;;;;4918298;29;20048;-77
2022/06/28 14:19:34;;;;;;;8.75;2.70;;;;;;;;;;4917024;29;20044;-78
2022/06/28 14:22:22;;;;;;;4.97;2.70;;;;;;;;;;4923851;29;20409;-76
2022/06/28 14:25:08;;;;;;;9.63;2.70;;;;;;;;;;4923084;29;20060;-79
2022/06/28 14:27:53;;;;;;;4.55;2.63;;;;;;;;;;4917626;29;20059;-79
2022/06/28 14:30:39;;;;;;;5.10;2.65;;;;;;;;;;4911761;29;20402;-78
2022/06/28 14:33:25;;;;;;;3.97;2.45;;;;;;;;;;4917377;29;20052;-78
2022/06/28 14:36:10;;;;;;;4.97;2.50;;;;;;;;;;4917551;29;20490;-77
2022/06/28 14:38:56;;;;;;;5.30;2.80;;;;;;;;;;4916905;29;20044;-78
2022/06/28 14:41:42;;;;;;;3.55;2.58;;;;;;;;;;4921639;29;20056;-79
2022/06/28 14:44:27;;;;;;;8.43;2.70;;;;;;;;;;4916881;29;20048;-79
2022/06/28 14:47:13;;;;;;;2.90;2.38;;;;;;;;;;4923402;29;20052;-79
2022/06/28 14:49:58;;;;;;;5.55;2.50;;;;;;;;;;4917301;29;20048;-79
2022/06/28 14:52:44;;;;;;;4.55;2.40;;;;;;;;;;4916729;29;20064;-79
2022/06/28 14:55:29;;;;;;;8.27;2.67;;;;;;;;;;4910199;29;20056;-77
2022/06/28 14:58:15;;;;;;;5.28;2.60;;;;;;;;;;4923113;29;20081;-78
2022/06/28 15:01:02;;;;;;;6.38;2.47;;;;;;;;;;4916234;29;20052;-77
2022/06/28 15:03:47;;;;;;;5.15;2.92;;;;;;;;;;4923324;29;20048;-78
2022/06/28 15:06:33;;;;;;;6.93;3.13;;;;;;;;;;4916738;29;20052;-77
2022/06/28 15:09:18;;;;;;;6.57;2.65;;;;;;;;;;4923405;29;20048;-78
2022/06/28 15:12:05;;;;;;;8.50;2.90;;;;;;;;;;4923037;29;20056;-82
2022/06/28 15:14:51;;;;;;;3.90;2.63;;;;;;;;;;4915792;29;20421;-78
2022/06/28 15:17:37;;;;;;;9.15;2.60;;;;;;;;;;4916958;29;20044;-80
2022/06/28 15:20:23;;;;;;;3.72;2.75;;;;;;;;;;4916346;29;20048;-80
2022/06/28 15:32:39;;;;;;;7.95;2.60;;;;;;;;;;4877209;29;20068;-78
2022/06/28 15:35:26;;;;;;;6.85;2.60;;;;;;;;;;4862720;29;20041;-77
2022/06/28 15:38:12;;;;;;;7.30;2.30;;;;;;;;;;4904895;29;20060;-79
2022/06/28 15:40:57;;;;;;;9.85;2.83;;;;;;;;;;4902151;29;20048;-80
2022/06/28 15:43:42;;;;;;;5.28;2.63;;;;;;;;;;4915774;29;20056;-75
2022/06/28 15:46:27;;;;;;;11.57;2.88;;;;;;;;;;4916674;29;20056;-79
2022/06/28 15:49:13;;;;;;;5.47;2.47;;;;;;;;;;4916633;29;20044;-78
2022/06/28 15:51:58;;;;;;;4.15;2.30;;;;;;;;;;4915780;29;20048;-79
2022/06/28 15:54:44;;;;;;;4.45;2.30;;;;;;;;;;4916558;29;20056;-78
2022/06/28 15:57:30;;;;;;;4.07;2.60;;;;;;;;;;4916278;29;20059;-79
2022/06/28 16:00:17;;;;;;;5.90;2.55;;;;;;;;;;4917033;29;20048;-78
2022/06/28 16:03:03;;;;;;;3.70;2.50;;;;;;;;;;4921668;29;20060;-78
2022/06/28 16:05:49;;;;;;;7.43;2.80;;;;;;;;;;4921535;29;20056;-78
2022/06/28 16:08:34;;;;;;;5.07;2.80;;;;;;;;;;4918657;29;20044;-78
2022/06/28 16:11:20;;;;;;;6.88;2.80;;;;;;;;;;4925651;29;20052;-78
2022/06/28 16:14:05;;;;;;;11.23;2.97;;;;;;;;;;4919790;29;20060;-78
2022/06/28 16:16:51;;;;;;;8.18;3.00;;;;;;;;;;4926153;29;20044;-79
2022/06/28 16:19:37;;;;;;;8.98;3.08;;;;;;;;;;4919565;29;20048;-78
2022/06/28 16:22:22;;;;;;;6.65;2.90;;;;;;;;;;4919366;29;20048;-78
2022/06/28 16:25:12;;;;;;;5.72;2.58;;;;;;;;;;4918666;29;20052;-77
2022/06/28 16:27:58;;;;;;;12.88;2.80;;;;;;;;;;4919460;29;20056;-78
2022/06/28 16:30:44;;;;;;;6.55;2.70;;;;;;;;;;4919623;29;20490;-78
2022/06/28 16:33:29;;;;;;;4.90;2.65;;;;;;;;;;4918437;29;20055;-78
2022/06/28 16:36:17;;;;;;;6.97;2.40;;;;;;;;;;4919510;29;20044;-78
2022/06/28 16:39:03;;;;;;;6.32;2.60;;;;;;;;;;4918974;29;20055;-77
2022/06/28 16:41:48;;;;;;;5.32;2.58;;;;;;;;;;4919699;29;20052;-80
2022/06/28 16:44:35;;;;;;;6.35;2.13;;;;;;;;;;4919358;29;20048;-78
2022/06/28 16:47:20;;;;;;;4.25;2.53;;;;;;;;;;4925067;29;20048;-77
2022/06/28 16:50:11;;;;;;;4.60;2.50;;;;;;;;;;4925653;29;20048;-79
2022/06/28 16:52:57;;;;;;;6.65;2.50;;;;;;;;;;4918405;29;20048;-78
2022/06/28 16:55:43;;;;;;;5.95;2.60;;;;;;;;;;4919314;29;20052;-80
2022/06/28 16:58:29;;;;;;;4.03;2.38;;;;;;;;;;4918978;29;20060;-79
2022/06/28 17:01:14;;;;;;;6.25;2.42;;;;;;;;;;4918899;29;20037;-78
2022/06/28 17:04:00;;;;;;;3.08;2.25;;;;;;;;;;4925219;29;20056;-78
2022/06/28 17:09:55;;;;;;;6.70;2.50;;;;;;;;;;4919597;29;20044;-78
2022/06/28 17:12:42;;;;;;;10.18;3.38;;;;;;;;;;4918642;29;20055;-78
2022/06/28 17:15:28;;;;;;;9.23;2.95;;;;;;;;;;4917960;29;20045;-78